Time;durP1;ratioP1;P1;durP2;ratioP2;P2;SDS_P1;SDS_P2;PMS_P1;PMS_P2;Temp;Humidity;BMP_temperature;BMP_pressure;BME280_temperature;BME280_humidity;BME280_pressure;Samples;Min_cycle;Max_cycle;Signal;HPM_P1;HPM_P2
2022/02/15 00:04:19;;;;;;;19.67;11.57;;;7.60;34.10;;;;;;10515029;28;20454;-73
2022/02/15 00:09:22;;;;;;;20.50;11.60;;;7.70;34.40;;;;;;10515939;28;20717;-72
2022/02/15 00:14:25;;;;;;;11.20;9.70;;;7.70;34.30;;;;;;10514906;28;20227;-73
2022/02/15 00:19:30;;;;;;;9.50;8.40;;;7.70;34.50;;;;;;10516640;28;20235;-72
2022/02/15 00:24:33;;;;;;;11.20;9.23;;;7.80;34.70;;;;;;10517022;28;20219;-72
2022/02/15 00:29:36;;;;;;;13.67;9.07;;;7.80;34.60;;;;;;10515688;28;20320;-72
2022/02/15 00:34:41;;;;;;;12.87;8.73;;;7.80;34.60;;;;;;10512322;28;20231;-73
2022/02/15 00:39:44;;;;;;;10.07;7.77;;;7.80;34.90;;;;;;10516671;28;20223;-72
2022/02/15 00:44:47;;;;;;;13.87;8.73;;;7.80;34.70;;;;;;10515366;28;20601;-72
2022/02/15 00:49:52;;;;;;;11.20;8.33;;;7.80;34.90;;;;;;10515780;28;20239;-73
2022/02/15 00:54:56;;;;;;;9.63;7.50;;;7.80;35.20;;;;;;10510938;28;20224;-73
2022/02/15 00:59:59;;;;;;;10.77;7.87;;;7.80;35.10;;;;;;10514816;28;20230;-73
2022/02/15 01:05:05;;;;;;;16.93;8.80;;;7.80;35.00;;;;;;10514444;28;20805;-72
2022/02/15 01:10:10;;;;;;;14.43;9.40;;;7.80;35.40;;;;;;10516374;28;20230;-72
2022/02/15 01:15:16;;;;;;;12.50;9.60;;;7.80;35.50;;;;;;10513375;28;20219;-72
2022/02/15 01:20:21;;;;;;;11.70;9.13;;;7.80;35.20;;;;;;10514968;28;20223;-72
2022/02/15 01:25:26;;;;;;;10.13;9.00;;;7.80;35.60;;;;;;10513105;28;20238;-72
2022/02/15 01:30:30;;;;;;;10.23;8.20;;;7.80;35.50;;;;;;10512415;28;20606;-73
2022/02/15 01:35:34;;;;;;;11.03;8.67;;;7.80;35.50;;;;;;10513464;28;20247;-72
2022/02/15 01:40:38;;;;;;;8.07;7.13;;;7.80;35.90;;;;;;10514370;28;20552;-73
2022/02/15 01:45:41;;;;;;;7.67;6.53;;;7.80;35.60;;;;;;10512548;28;20344;-73
2022/02/15 01:50:46;;;;;;;7.63;6.50;;;7.80;35.50;;;;;;10512592;28;20234;-73
2022/02/15 01:55:49;;;;;;;8.27;6.87;;;7.80;36.00;;;;;;10515125;28;20711;-73
2022/02/15 02:00:53;;;;;;;11.13;6.67;;;7.80;35.80;;;;;;10509184;28;20223;-72
2022/02/15 02:05:58;;;;;;;8.83;6.70;;;7.80;35.60;;;;;;10510909;28;20318;-73
2022/02/15 02:11:02;;;;;;;7.10;6.40;;;7.80;36.10;;;;;;10511004;28;20318;-72
2022/02/15 02:16:06;;;;;;;7.83;6.47;;;7.90;36.70;;;;;;10512428;28;20269;-73
2022/02/15 02:21:10;;;;;;;6.57;5.73;;;7.80;36.70;;;;;;10511900;28;20227;-73
2022/02/15 02:26:14;;;;;;;5.97;5.37;;;7.80;36.30;;;;;;10510463;28;20228;-73
2022/02/15 02:31:17;;;;;;;6.63;5.80;;;7.80;36.30;;;;;;10506454;28;20224;-73
2022/02/15 02:36:22;;;;;;;6.30;5.70;;;7.80;36.40;;;;;;10513394;28;20231;-73
2022/02/15 02:41:25;;;;;;;6.27;5.67;;;7.80;36.90;;;;;;10514734;28;20235;-73
2022/02/15 02:46:29;;;;;;;5.87;5.37;;;7.80;36.70;;;;;;10522230;28;20493;-72
2022/02/15 02:51:34;;;;;;;6.03;5.40;;;7.80;37.10;;;;;;10513398;28;20220;-73
2022/02/15 02:56:37;;;;;;;5.80;5.30;;;7.80;37.80;;;;;;10518990;28;20236;-73
2022/02/15 03:01:40;;;;;;;4.93;4.53;;;7.80;37.60;;;;;;10518658;28;20230;-73
2022/02/15 03:06:45;;;;;;;5.40;4.90;;;7.90;37.60;;;;;;10518080;28;20228;-73
2022/02/15 03:11:49;;;;;;;5.20;4.70;;;7.90;38.10;;;;;;10521202;28;20215;-70
2022/02/15 03:16:53;;;;;;;5.53;5.03;;;8.00;37.80;;;;;;10518874;28;20230;-69
2022/02/15 03:21:58;;;;;;;5.27;4.77;;;8.00;37.80;;;;;;10522200;28;20223;-69
2022/02/15 03:27:01;;;;;;;4.93;4.43;;;8.10;38.30;;;;;;10519728;28;20227;-70
2022/02/15 03:32:05;;;;;;;4.37;4.07;;;8.10;38.10;;;;;;10519939;28;20212;-70
2022/02/15 03:37:09;;;;;;;5.17;4.00;;;8.20;38.50;;;;;;10520077;28;20227;-70
2022/02/15 03:47:33;;;;;;;5.53;4.57;;;8.40;38.80;;;;;;10519358;28;20762;-70
2022/02/15 03:52:38;;;;;;;5.30;4.80;;;8.40;38.90;;;;;;10519131;28;20230;-70
2022/02/15 03:57:41;;;;;;;4.83;4.43;;;8.50;39.60;;;;;;10519556;28;20228;-70
2022/02/15 04:02:44;;;;;;;5.10;4.60;;;8.60;38.80;;;;;;10516901;28;20230;-70
2022/02/15 04:07:49;;;;;;;5.73;5.17;;;8.60;38.80;;;;;;10517044;28;20589;-70
2022/02/15 04:12:52;;;;;;;5.90;5.40;;;8.70;39.60;;;;;;10516201;28;20235;-70
2022/02/15 04:17:55;;;;;;;5.70;5.20;;;8.70;38.90;;;;;;10515302;28;20320;-70
2022/02/15 04:23:00;;;;;;;6.13;5.57;;;8.80;39.00;;;;;;10514903;28;20224;-70
2022/02/15 04:28:03;;;;;;;6.33;5.73;;;8.80;39.80;;;;;;10508885;28;20259;-70
2022/02/15 04:33:07;;;;;;;6.40;5.90;;;8.80;39.00;;;;;;10510039;28;20707;-70
2022/02/15 04:38:11;;;;;;;6.77;6.17;;;8.80;39.00;;;;;;10509380;28;20262;-70
2022/02/15 04:43:14;;;;;;;6.37;5.87;;;8.90;39.90;;;;;;10506464;28;20715;-70
2022/02/15 04:48:18;;;;;;;6.40;5.90;;;8.90;39.20;;;;;;10507691;28;20247;-71
2022/02/15 04:53:22;;;;;;;6.20;5.60;;;8.90;39.20;;;;;;10507059;28;20247;-71
2022/02/15 04:58:26;;;;;;;6.40;5.90;;;9.00;40.00;;;;;;10507860;28;20227;-71
2022/02/15 05:03:29;;;;;;;6.97;6.37;;;9.00;39.40;;;;;;10509607;28;20431;-71
2022/02/15 05:08:33;;;;;;;7.87;7.27;;;9.00;39.40;;;;;;10506114;28;20235;-71
2022/02/15 05:13:37;;;;;;;7.87;7.20;;;9.00;40.80;;;;;;10507602;28;20704;-71
2022/02/15 05:18:40;;;;;;;7.97;7.30;;;9.00;39.50;;;;;;10507098;28;20442;-71
2022/02/15 05:23:44;;;;;;;8.23;7.43;;;9.00;39.40;;;;;;10506296;28;20227;-70
2022/02/15 05:28:47;;;;;;;8.57;7.77;;;9.00;40.10;;;;;;10509041;28;20231;-70
2022/02/15 05:33:51;;;;;;;9.07;8.27;;;9.00;39.50;;;;;;10503144;28;20285;-70
2022/02/15 05:38:55;;;;;;;9.87;8.87;;;9.00;40.30;;;;;;10507829;28;20584;-70
2022/02/15 05:43:58;;;;;;;8.77;7.97;;;9.00;40.10;;;;;;10508809;28;20220;-70
2022/02/15 05:49:02;;;;;;;8.53;7.83;;;9.00;39.80;;;;;;10511472;28;20783;-70
2022/02/15 05:54:07;;;;;;;9.20;8.23;;;9.00;40.00;;;;;;10511692;28;20223;-70
2022/02/15 05:59:10;;;;;;;17.93;14.67;;;9.00;40.10;;;;;;10509850;28;20227;-70
2022/02/15 06:04:13;;;;;;;16.13;14.63;;;9.00;40.00;;;;;;10513003;28;20222;-70
2022/02/15 06:09:18;;;;;;;10.67;9.67;;;9.10;40.10;;;;;;10513245;28;20224;-69
2022/02/15 06:14:21;;;;;;;9.57;8.57;;;9.00;40.10;;;;;;10509960;28;20216;-69
2022/02/15 06:19:24;;;;;;;8.90;8.10;;;9.10;40.10;;;;;;10519028;28;20242;-69
2022/02/15 06:24:28;;;;;;;8.77;7.87;;;9.10;40.10;;;;;;10517981;28;20608;-70
2022/02/15 06:29:36;;;;;;;8.57;7.77;;;9.10;40.10;;;;;;10519088;28;20288;-70
2022/02/15 06:34:39;;;;;;;10.40;7.93;;;9.20;40.10;;;;;;10515889;28;20242;-70
2022/02/15 06:39:47;;;;;;;8.20;7.53;;;9.10;39.90;;;;;;10519203;28;20227;-68
2022/02/15 06:44:50;;;;;;;8.90;8.00;;;9.10;40.10;;;;;;10519252;28;20254;-68
2022/02/15 06:49:53;;;;;;;9.83;8.93;;;9.20;39.90;;;;;;10517257;28;20586;-69
2022/02/15 06:54:58;;;;;;;10.97;9.83;;;9.20;39.80;;;;;;10520515;28;20707;-70
2022/02/15 07:00:01;;;;;;;13.90;10.73;;;9.20;40.20;;;;;;10517810;28;20561;-70
2022/02/15 07:05:05;;;;;;;13.00;10.73;;;9.20;39.60;;;;;;10515268;28;20220;-70
2022/02/15 07:10:12;;;;;;;11.53;9.67;;;9.20;39.80;;;;;;10517377;28;20241;-69
2022/02/15 07:15:15;;;;;;;10.83;9.77;;;9.20;40.20;;;;;;10518166;28;20220;-69
2022/02/15 07:20:18;;;;;;;12.63;11.43;;;9.20;39.70;;;;;;10520053;28;20228;-70
2022/02/15 07:25:23;;;;;;;15.93;14.40;;;9.20;39.80;;;;;;10518320;28;20238;-72
2022/02/15 07:30:26;;;;;;;17.30;15.67;;;9.20;40.20;;;;;;10517918;28;20602;-72
2022/02/15 07:35:29;;;;;;;14.50;13.17;;;9.20;40.20;;;;;;10525729;28;20236;-72
2022/02/15 07:40:34;;;;;;;12.10;10.80;;;9.20;40.20;;;;;;10524749;28;20243;-72
2022/02/15 07:45:39;;;;;;;11.87;10.67;;;9.20;40.20;;;;;;10522409;28;20700;-72
2022/02/15 07:50:42;;;;;;;11.13;9.90;;;9.20;40.20;;;;;;10527833;28;20236;-72
2022/02/15 07:55:46;;;;;;;11.37;9.47;;;9.20;40.20;;;;;;10525611;28;20231;-72
2022/02/15 08:00:49;;;;;;;11.60;9.20;;;9.20;40.20;;;;;;10527628;28;20655;-72
2022/02/15 08:05:53;;;;;;;11.03;10.03;;;9.20;40.20;;;;;;10525357;28;20231;-72
2022/02/15 08:10:57;;;;;;;10.63;9.53;;;9.20;40.20;;;;;;10526623;28;20247;-72
2022/02/15 08:16:01;;;;;;;11.67;10.57;;;9.20;40.50;;;;;;10523884;28;20219;-72
2022/02/15 08:21:04;;;;;;;12.40;11.27;;;9.30;40.70;;;;;;10526440;28;20220;-71
2022/02/15 08:26:28;;;;;;;9.87;8.80;;;9.30;40.30;;;;;;10523662;28;20226;-72
2022/02/15 08:31:32;;;;;;;9.07;8.20;;;9.30;40.90;;;;;;10524378;28;20227;-72
2022/02/15 08:36:35;;;;;;;12.30;10.33;;;9.40;40.40;;;;;;10524651;28;20224;-72
2022/02/15 08:41:39;;;;;;;7.87;5.60;;;9.40;40.40;;;;;;10520912;28;20215;-72
2022/02/15 08:46:42;;;;;;;6.97;4.03;;;9.40;40.80;;;;;;10522748;28;20231;-72
2022/02/15 08:51:46;;;;;;;3.43;3.13;;;9.50;40.50;;;;;;10523418;28;20223;-72
2022/02/15 08:56:51;;;;;;;6.60;4.60;;;9.50;40.50;;;;;;10522851;28;20230;-72
2022/02/15 09:01:54;;;;;;;3.53;3.20;;;9.50;40.80;;;;;;10523070;28;20219;-68
2022/02/15 09:06:58;;;;;;;4.40;2.80;;;9.50;40.50;;;;;;10522649;28;20223;-68
2022/02/15 09:12:03;;;;;;;3.63;3.30;;;9.60;41.20;;;;;;10521423;28;20222;-70
2022/02/15 09:17:06;;;;;;;3.50;3.17;;;9.60;41.00;;;;;;10523821;28;20216;-68
2022/02/15 09:22:10;;;;;;;4.00;3.30;;;9.70;40.60;;;;;;10522313;28;20219;-68
2022/02/15 09:27:14;;;;;;;4.30;3.40;;;9.80;40.70;;;;;;10523482;28;20239;-67
2022/02/15 09:32:17;;;;;;;4.60;4.20;;;9.90;40.80;;;;;;10522402;28;20228;-68
2022/02/15 09:37:21;;;;;;;5.23;4.77;;;9.90;40.80;;;;;;10522408;28;20745;-68
2022/02/15 09:42:26;;;;;;;3.97;3.57;;;9.90;40.80;;;;;;10518411;28;20826;-68
2022/02/15 09:47:29;;;;;;;4.10;3.67;;;10.00;39.90;;;;;;10519659;28;20230;-67
2022/02/15 09:52:32;;;;;;;4.63;4.27;;;10.00;39.90;;;;;;10521519;28;20219;-68
2022/02/15 09:57:38;;;;;;;4.10;3.80;;;10.00;39.90;;;;;;10520961;28;20246;-67
2022/02/15 10:02:44;;;;;;;3.90;3.60;;;10.10;40.00;;;;;;10520902;28;20234;-68
2022/02/15 10:07:51;;;;;;;4.67;4.27;;;10.10;40.00;;;;;;10520178;28;20242;-68
2022/02/15 10:13:00;;;;;;;5.50;4.00;;;10.10;40.00;;;;;;10521631;28;20219;-68
2022/02/15 10:18:11;;;;;;;4.33;4.03;;;10.10;40.00;;;;;;10521938;28;20222;-68
2022/02/15 10:23:17;;;;;;;4.03;3.73;;;10.20;40.10;;;;;;10522014;28;20613;-67
2022/02/15 10:28:24;;;;;;;4.23;3.90;;;10.20;40.10;;;;;;10515329;28;20235;-67
2022/02/15 10:33:30;;;;;;;4.27;3.90;;;10.20;40.10;;;;;;10522602;28;20228;-68
2022/02/15 10:38:34;;;;;;;3.97;3.63;;;10.20;40.10;;;;;;10519566;28;20795;-68
2022/02/15 10:43:47;;;;;;;4.23;3.83;;;10.20;40.10;;;;;;10517335;28;20238;-68
2022/02/15 10:48:51;;;;;;;3.87;3.57;;;10.10;40.20;;;;;;10520417;28;20220;-68
2022/02/15 10:53:56;;;;;;;4.47;4.07;;;10.20;40.10;;;;;;10520943;28;20281;-67
2022/02/15 10:59:05;;;;;;;4.13;3.73;;;10.10;40.00;;;;;;10519367;28;20608;-68
2022/02/15 11:04:12;;;;;;;4.00;3.70;;;10.10;40.00;;;;;;10527526;28;20227;-68
2022/02/15 11:09:20;;;;;;;4.60;4.20;;;10.20;40.10;;;;;;10528773;28;20236;-70
2022/02/15 11:14:25;;;;;;;4.43;4.03;;;10.20;40.10;;;;;;10526440;28;20589;-70
2022/02/15 11:19:34;;;;;;;5.23;4.80;;;10.20;40.10;;;;;;10528326;28;20224;-70
2022/02/15 11:24:40;;;;;;;5.27;4.77;;;10.30;40.30;;;;;;10527576;28;20438;-70
2022/02/15 11:29:54;;;;;;;5.63;4.57;;;10.30;40.20;;;;;;10527400;28;20227;-70
2022/02/15 11:34:57;;;;;;;6.57;5.50;;;10.40;41.10;;;;;;10527415;28;20211;-70
2022/02/15 11:40:05;;;;;;;8.30;7.50;;;10.40;40.30;;;;;;10526224;28;20314;-70
2022/02/15 11:45:25;;;;;;;5.87;5.37;;;10.50;40.40;;;;;;10521061;28;20243;-70
2022/02/15 11:50:28;;;;;;;5.80;5.17;;;10.60;40.70;;;;;;10526861;28;20571;-70
2022/02/15 11:55:36;;;;;;;6.90;5.90;;;10.70;40.30;;;;;;10524981;28;20215;-70
2022/02/15 12:00:44;;;;;;;5.97;5.47;;;10.80;40.60;;;;;;10526737;28;20696;-70
2022/02/15 12:05:48;;;;;;;6.13;5.33;;;10.80;40.50;;;;;;10524454;28;20215;-70
2022/02/15 12:10:51;;;;;;;6.03;5.43;;;10.90;40.00;;;;;;10524329;28;20529;-70
2022/02/15 12:15:56;;;;;;;5.07;4.67;;;10.90;39.90;;;;;;10524300;28;20286;-70
2022/02/15 12:21:00;;;;;;;5.33;4.83;;;10.90;39.90;;;;;;10525272;28;20220;-70
2022/02/15 12:26:07;;;;;;;5.23;4.73;;;10.90;40.40;;;;;;10526172;28;20680;-70
2022/02/15 12:31:13;;;;;;;6.00;5.47;;;10.90;40.00;;;;;;10523901;28;20224;-70
2022/02/15 12:36:17;;;;;;;5.60;5.10;;;10.80;39.90;;;;;;10521767;28;20269;-70
2022/02/15 12:41:22;;;;;;;5.47;4.97;;;10.80;39.90;;;;;;10522083;28;20227;-70
2022/02/15 12:46:27;;;;;;;5.90;5.43;;;10.80;40.10;;;;;;10504044;28;20232;-70
2022/02/15 12:51:33;;;;;;;6.37;5.87;;;10.90;40.10;;;;;;10518377;28;20230;-70
2022/02/15 12:56:38;;;;;;;6.53;5.87;;;10.90;39.90;;;;;;10520017;28;20595;-70
2022/02/15 13:01:42;;;;;;;7.80;7.00;;;10.90;39.90;;;;;;10516709;28;20628;-70
2022/02/15 13:06:51;;;;;;;6.27;5.77;;;11.00;39.90;;;;;;10521820;28;20708;-71
2022/02/15 13:11:58;;;;;;;6.53;5.93;;;11.00;39.70;;;;;;10519702;28;20223;-70
2022/02/15 13:17:03;;;;;;;6.03;5.43;;;11.00;39.90;;;;;;10518046;28;20223;-70
2022/02/15 13:22:12;;;;;;;6.40;5.80;;;11.10;39.80;;;;;;10519929;28;20308;-70
2022/02/15 13:27:15;;;;;;;5.60;5.10;;;11.20;40.30;;;;;;10518477;28;20813;-70
2022/02/15 13:32:30;;;;;;;5.63;5.13;;;11.20;39.90;;;;;;10519047;28;20777;-70
2022/02/15 13:37:35;;;;;;;5.70;5.17;;;11.30;40.50;;;;;;10519003;28;20239;-70
2022/02/15 13:42:38;;;;;;;5.53;5.13;;;11.40;39.80;;;;;;10515993;28;20224;-70
2022/02/15 13:47:42;;;;;;;5.23;4.73;;;11.50;39.60;;;;;;10517597;28;20617;-70
2022/02/15 13:52:45;;;;;;;5.83;5.33;;;11.60;39.30;;;;;;10517505;28;20231;-70
2022/02/15 13:57:49;;;;;;;5.20;4.80;;;11.70;39.20;;;;;;10520326;28;20711;-71
2022/02/15 14:02:54;;;;;;;5.67;5.20;;;11.70;38.80;;;;;;10510135;28;20215;-70
2022/02/15 14:07:58;;;;;;;3.07;2.87;;;11.70;39.00;;;;;;10517558;28;20314;-70
2022/02/15 14:13:02;;;;;;;1.50;1.40;;;11.60;38.30;;;;;;10517541;28;20226;-70
2022/02/15 14:18:06;;;;;;;1.80;1.70;;;11.60;37.90;;;;;;10514696;28;20610;-70
2022/02/15 14:23:09;;;;;;;2.30;1.70;;;11.40;38.00;;;;;;10515779;28;20497;-70
2022/02/15 14:28:13;;;;;;;2.00;1.90;;;11.30;38.20;;;;;;10517946;28;20719;-70
2022/02/15 14:33:20;;;;;;;2.77;2.40;;;11.30;38.30;;;;;;10518905;28;20311;-70
2022/02/15 14:38:24;;;;;;;1.97;1.87;;;11.20;38.50;;;;;;10524210;28;20236;-71
2022/02/15 14:43:29;;;;;;;3.43;3.00;;;11.10;38.50;;;;;;10525252;28;20297;-70
2022/02/15 14:48:33;;;;;;;5.70;4.50;;;11.10;38.40;;;;;;10524787;28;20223;-70
2022/02/15 14:53:36;;;;;;;3.13;2.30;;;11.10;38.40;;;;;;10523519;28;20683;-70
2022/02/15 14:58:40;;;;;;;2.20;2.10;;;11.10;38.40;;;;;;10525561;28;20719;-70
2022/02/15 15:03:45;;;;;;;2.97;2.73;;;11.00;38.60;;;;;;10525434;28;20587;-70
2022/02/15 15:08:49;;;;;;;3.63;2.73;;;11.00;38.70;;;;;;10525027;28;20223;-71
2022/02/15 15:13:53;;;;;;;3.87;3.47;;;11.00;38.70;;;;;;10526328;28;20219;-70
2022/02/15 15:18:57;;;;;;;3.90;3.60;;;11.00;38.80;;;;;;10524901;28;20237;-70
2022/02/15 15:24:00;;;;;;;3.23;2.77;;;10.90;38.80;;;;;;10521659;28;20571;-70
2022/02/15 15:29:04;;;;;;;2.50;2.30;;;10.80;38.70;;;;;;10525850;28;20246;-70
2022/02/15 15:34:08;;;;;;;2.67;2.47;;;10.80;38.90;;;;;;10523443;28;20223;-70
2022/02/15 15:39:11;;;;;;;2.70;2.50;;;10.70;38.90;;;;;;10524031;28;20729;-71
2022/02/15 15:44:15;;;;;;;3.27;2.63;;;10.70;38.90;;;;;;10520080;28;20220;-72
2022/02/15 15:49:20;;;;;;;2.70;2.50;;;10.60;38.70;;;;;;10520573;28;20598;-72
2022/02/15 15:54:23;;;;;;;2.93;2.73;;;10.60;38.90;;;;;;10524535;28;20265;-72
2022/02/15 15:59:26;;;;;;;3.50;3.20;;;10.50;38.90;;;;;;10520920;28;20227;-72
2022/02/15 16:04:32;;;;;;;4.60;4.20;;;10.40;38.90;;;;;;10523613;28;20220;-72
2022/02/15 16:09:35;;;;;;;10.90;6.97;;;10.40;39.20;;;;;;10519435;28;20234;-72
2022/02/15 16:14:38;;;;;;;7.80;4.60;;;10.40;39.10;;;;;;10521858;28;20224;-72
2022/02/15 16:19:43;;;;;;;5.70;4.00;;;10.40;39.10;;;;;;10513861;28;20231;-72
2022/02/15 16:24:46;;;;;;;9.90;5.80;;;10.40;39.30;;;;;;10522169;28;20221;-72
2022/02/15 16:29:49;;;;;;;13.20;7.77;;;10.40;39.20;;;;;;10521933;28;20262;-72
2022/02/15 16:34:56;;;;;;;9.33;5.67;;;10.40;39.10;;;;;;10521142;28;20220;-72
2022/02/15 16:40:02;;;;;;;6.50;5.87;;;10.40;39.30;;;;;;10519039;28;20238;-72
2022/02/15 16:45:06;;;;;;;6.97;6.27;;;10.30;39.20;;;;;;10517703;28;20222;-72
2022/02/15 16:50:11;;;;;;;8.23;6.67;;;10.20;39.10;;;;;;10518138;28;20603;-72
2022/02/15 16:55:15;;;;;;;5.60;5.03;;;10.20;39.20;;;;;;10521751;28;20220;-70
2022/02/15 17:00:18;;;;;;;4.70;4.30;;;10.10;39.10;;;;;;10521877;28;20234;-69
2022/02/15 17:05:23;;;;;;;4.03;3.73;;;9.90;40.10;;;;;;10521639;28;24755;-70
2022/02/15 17:10:26;;;;;;;7.43;5.60;;;9.80;40.30;;;;;;10520959;28;20224;-70
2022/02/15 17:15:30;;;;;;;6.00;5.10;;;9.80;40.20;;;;;;10521099;28;20228;-70
2022/02/15 17:20:34;;;;;;;10.53;8.77;;;9.70;40.40;;;;;;10516956;28;20223;-70
2022/02/15 17:25:38;;;;;;;6.43;5.77;;;9.60;40.50;;;;;;10519655;28;20247;-70
2022/02/15 17:30:41;;;;;;;4.77;4.37;;;9.60;40.50;;;;;;10520747;28;20232;-70
2022/02/15 17:35:45;;;;;;;4.53;4.13;;;9.60;40.50;;;;;;10522321;28;20342;-70
2022/02/15 17:40:48;;;;;;;4.77;4.37;;;9.50;40.40;;;;;;10518698;28;20220;-70
2022/02/15 17:45:53;;;;;;;4.80;4.30;;;9.40;40.10;;;;;;10519132;28;20591;-72
2022/02/15 17:50:59;;;;;;;4.23;3.83;;;9.40;40.30;;;;;;10518500;28;20269;-72
2022/02/15 17:56:02;;;;;;;3.73;3.43;;;9.30;40.30;;;;;;10515488;28;20261;-70
2022/02/15 18:01:23;;;;;;;3.70;3.40;;;9.20;40.20;;;;;;10518274;28;20238;-71
2022/02/15 18:06:29;;;;;;;26.07;19.67;;;9.00;40.10;;;;;;10517099;28;20524;-71
2022/02/15 18:11:32;;;;;;;72.40;56.13;;;8.90;40.10;;;;;;10514820;28;20226;-71
2022/02/15 18:16:35;;;;;;;114.07;102.13;;;8.90;40.00;;;;;;10518413;28;20228;-71
2022/02/15 18:21:49;;;;;;;52.77;47.63;;;8.80;39.90;;;;;;10517161;28;20223;-71
2022/02/15 18:27:09;;;;;;;18.00;16.30;;;8.70;40.20;;;;;;10515604;28;20226;-71
2022/02/15 18:32:13;;;;;;;10.73;9.63;;;8.50;39.80;;;;;;10519103;28;20635;-71
2022/02/15 18:37:26;;;;;;;7.93;7.13;;;8.50;40.10;;;;;;10517626;28;20285;-71
2022/02/15 18:42:30;;;;;;;7.73;6.63;;;8.40;40.80;;;;;;10516710;28;20235;-71
2022/02/15 18:47:35;;;;;;;7.97;7.17;;;8.30;40.70;;;;;;10516756;28;20223;-71
2022/02/15 18:52:40;;;;;;;6.40;5.83;;;8.20;40.70;;;;;;10517336;28;20223;-72
2022/02/15 18:57:43;;;;;;;6.27;5.73;;;8.20;41.10;;;;;;10518263;28;20566;-72
2022/02/15 19:02:47;;;;;;;6.50;5.90;;;8.10;40.90;;;;;;10511909;28;20220;-72
2022/02/15 19:07:52;;;;;;;7.97;7.27;;;8.10;41.00;;;;;;10515471;28;20294;-72
2022/02/15 19:12:55;;;;;;;5.67;5.17;;;8.10;41.30;;;;;;10515417;28;20224;-72
2022/02/15 19:17:58;;;;;;;4.70;4.30;;;8.00;41.00;;;;;;10516720;28;20261;-72
2022/02/15 19:23:03;;;;;;;4.53;4.23;;;8.00;41.20;;;;;;10521817;28;20242;-72
2022/02/15 19:28:08;;;;;;;4.87;4.47;;;8.00;41.50;;;;;;10526115;28;20230;-72
2022/02/15 19:33:11;;;;;;;4.80;4.40;;;8.00;41.50;;;;;;10521623;28;20227;-72
2022/02/15 19:38:16;;;;;;;4.30;3.87;;;8.00;41.50;;;;;;10524084;28;20235;-72
2022/02/15 19:43:19;;;;;;;4.70;4.30;;;8.00;41.70;;;;;;10519390;28;20227;-72
2022/02/15 19:48:22;;;;;;;5.83;5.27;;;8.10;41.70;;;;;;10523240;28;20735;-72
2022/02/15 19:53:28;;;;;;;7.47;5.00;;;8.10;41.70;;;;;;10523247;28;20707;-72
2022/02/15 19:58:31;;;;;;;5.47;4.90;;;8.10;42.10;;;;;;10519449;28;20223;-72
2022/02/15 20:03:34;;;;;;;4.43;4.07;;;8.20;41.80;;;;;;10521615;28;20230;-72
2022/02/15 20:08:41;;;;;;;4.00;3.60;;;8.20;41.60;;;;;;10524140;28;20227;-72
2022/02/15 20:13:46;;;;;;;3.80;3.40;;;8.20;41.80;;;;;;10522452;28;20239;-72
2022/02/15 20:18:51;;;;;;;4.23;3.93;;;8.20;41.50;;;;;;10521350;28;20238;-72
2022/02/15 20:23:56;;;;;;;3.83;3.53;;;8.20;41.60;;;;;;10512978;28;20224;-72
2022/02/15 20:29:00;;;;;;;3.73;3.43;;;8.20;41.60;;;;;;10522643;28;20232;-70
2022/02/15 20:34:06;;;;;;;3.33;3.13;;;8.20;41.30;;;;;;10521556;28;20702;-70
2022/02/15 20:39:10;;;;;;;3.20;3.00;;;8.20;41.20;;;;;;10520404;28;20689;-70
2022/02/15 20:44:13;;;;;;;3.00;2.80;;;8.20;41.30;;;;;;10519869;28;20225;-70
2022/02/15 20:49:19;;;;;;;3.83;3.53;;;8.20;41.20;;;;;;10516960;28;20227;-69
2022/02/15 20:54:24;;;;;;;3.70;3.43;;;8.20;41.20;;;;;;10523458;28;20228;-70
2022/02/15 20:59:27;;;;;;;3.80;3.50;;;7.90;41.00;;;;;;10518575;28;20703;-70
2022/02/15 21:04:30;;;;;;;4.10;3.70;;;8.10;40.90;;;;;;10520714;28;20223;-70
2022/02/15 21:09:39;;;;;;;4.07;3.77;;;8.00;40.60;;;;;;10519041;28;20242;-70
2022/02/15 21:14:47;;;;;;;4.90;4.50;;;8.00;40.70;;;;;;10519120;28;20244;-70
2022/02/15 21:19:50;;;;;;;4.37;4.03;;;7.90;40.70;;;;;;10521336;28;20228;-70
2022/02/15 21:24:55;;;;;;;4.90;4.50;;;7.80;40.60;;;;;;10519272;28;20838;-70
2022/02/15 21:29:59;;;;;;;6.80;6.17;;;7.80;40.60;;;;;;10516219;28;20224;-69
2022/02/15 21:35:02;;;;;;;7.60;6.80;;;7.70;40.40;;;;;;10517019;28;20609;-69
2022/02/15 21:40:08;;;;;;;5.70;5.20;;;7.60;40.50;;;;;;10518374;28;20625;-69
2022/02/15 21:45:11;;;;;;;5.87;5.27;;;7.50;40.60;;;;;;10519035;28;20625;-69
2022/02/15 21:50:16;;;;;;;5.37;4.87;;;7.50;40.40;;;;;;10519981;28;20224;-69
2022/02/15 21:55:21;;;;;;;4.77;4.43;;;7.40;40.40;;;;;;10520220;28;20280;-69
2022/02/15 22:00:24;;;;;;;4.73;4.33;;;7.30;40.50;;;;;;10520133;28;20531;-70
2022/02/15 22:05:27;;;;;;;4.70;4.30;;;7.30;40.40;;;;;;10501248;28;20225;-70
2022/02/15 22:10:32;;;;;;;5.00;4.60;;;7.30;40.50;;;;;;10493682;28;20695;-70
2022/02/15 22:15:35;;;;;;;4.57;4.20;;;7.30;40.60;;;;;;10508000;28;20453;-70
2022/02/15 22:20:39;;;;;;;4.57;4.07;;;7.20;40.40;;;;;;10507906;28;20231;-70
2022/02/15 22:25:44;;;;;;;4.20;3.90;;;7.20;40.40;;;;;;10506857;28;20237;-70
2022/02/15 22:30:47;;;;;;;4.27;3.97;;;7.10;40.70;;;;;;10507883;28;20227;-69
2022/02/15 22:35:53;;;;;;;4.73;4.40;;;7.10;40.70;;;;;;10508357;28;20234;-69
2022/02/15 22:40:58;;;;;;;7.03;4.40;;;7.10;40.70;;;;;;10507667;28;20373;-69
2022/02/15 22:46:01;;;;;;;4.73;4.23;;;7.00;40.90;;;;;;10506305;28;20231;-69
2022/02/15 22:51:04;;;;;;;4.10;3.70;;;6.90;40.80;;;;;;10506613;28;20650;-69
2022/02/15 22:56:09;;;;;;;3.97;3.67;;;6.90;41.00;;;;;;10505047;28;20227;-69
2022/02/15 23:01:12;;;;;;;3.60;3.40;;;6.90;41.20;;;;;;10512852;28;20684;-68
2022/02/15 23:22:20;;;;;;;3.07;2.00;;;6.80;41.30;;;;;;10511773;28;20227;-70
2022/02/15 23:27:24;;;;;;;2.10;1.90;;;6.80;41.30;;;;;;10510505;28;20231;-70
2022/02/15 23:32:28;;;;;;;2.03;1.77;;;6.80;41.40;;;;;;10517898;28;20506;-70
2022/02/15 23:37:31;;;;;;;2.03;1.67;;;6.90;41.20;;;;;;10517653;28;20226;-70
2022/02/15 23:42:36;;;;;;;2.23;1.80;;;6.90;41.10;;;;;;10516359;28;20431;-70
2022/02/15 23:47:41;;;;;;;2.00;1.80;;;7.00;41.10;;;;;;10517052;28;20235;-70
2022/02/15 23:52:44;;;;;;;2.00;1.80;;;7.00;41.00;;;;;;10515518;28;20605;-70
2022/02/15 23:57:54;;;;;;;1.80;1.70;;;7.10;40.90;;;;;;10518135;28;20220;-70
